Manumu Airport

UUU · Northern Province, 巴布亚新几内亚

罗盘
风向 的 风向 300°
风: 10 kt, 3 beaufort

添加一条跑道以查看侧风和逆风信息。

添置 跑道
0 ft 2.000 4.000 6.000 8.000 10.000
Cloud Cloud Cloud Cloud
SCT 3.000
Cloud Cloud Cloud Cloud
SCT 10.000
METAR AYPY 061900Z 30010KT 9999 SCT030 SCT100 24/23 Q1005

METAR Manumu Airport - UUU/UUU

Manumu Airport是,巴布亚新几内亚中的小机场。 视场标高为1.800 ft。 该领域的国际民航组织标志是UUU 它的国际航空运输协会代码是UUU.

这份报告是针对2023年2月7日 05:00, 当地时间在傑克遜斯國際機場进行的。

机场观察

风向为300°,速度为10 kt。

可见度为10 km 或者更多。

有疏云,零星散落的云朵在3.000 ft的高度 和 疏云,零星散落的云朵在10.000 ft的高度。 没有观察到天花板。

温度和风寒是24 °C。 露点为23 °C,相对湿度为94%。 海平面上的气压为1005 hPa (QNH)。

白天

今天,太阳从06:09升起,在18:37降落。 这适用于Manumu Airport,世界夏令时可能有所不同。 当地时间与世界标准时间之间的时差为+10 小时。 当前,没有夏令时有效。

公司介绍

我们没有关于这个机场的公司信息。

体会

到Vliegles.nl去找飞行课程,跳伞和其他飞行体验。 浏览页面,了解Manumu Airport附近所有可用的活动。 你也可以使用搜索功能来寻找你所在地附近的特定飞行课程、跳伞或其他飞行体验。

乌云

3.000 ft SCT 疏云,零星散落的云朵
10.000 ft SCT 疏云,零星散落的云朵

温度 & 天气

温度 24 °C
露点 23 °C
相对湿度 94%
Kp-index 3 (0-9)

白天

日出
06:10 (16m)
中午
12:25
日落
18:39

小工具

你想在你的网站上有一个关于Manumu Airport的当前航空天气(METAR)的小部件吗?

显示HTML代码

我们和第三方通过cookies跟踪您在我们网站上的互联网行为。如果你继续,我们认为你同意我们的饼干政策